sensor_id;sensor_type;location;lat;lon;timestamp;P1;durP1;ratioP1;P2;durP2;ratioP2
13051;SDS011;6592;47.484;9.726;2022-10-26T00:01:23;3.22;;;0.95;;
13051;SDS011;6592;47.484;9.726;2022-10-26T00:03:53;5.65;;;1.30;;
13051;SDS011;6592;47.484;9.726;2022-10-26T00:06:23;10.77;;;3.05;;
13051;SDS011;6592;47.484;9.726;2022-10-26T00:08:54;5.53;;;1.63;;
13051;SDS011;6592;47.484;9.726;2022-10-26T00:11:23;2.10;;;0.80;;
13051;SDS011;6592;47.484;9.726;2022-10-26T00:13:51;1.67;;;0.70;;
13051;SDS011;6592;47.484;9.726;2022-10-26T00:16:21;2.63;;;0.80;;
13051;SDS011;6592;47.484;9.726;2022-10-26T00:18:53;2.78;;;0.98;;
13051;SDS011;6592;47.484;9.726;2022-10-26T00:21:21;2.00;;;1.02;;
13051;SDS011;6592;47.484;9.726;2022-10-26T00:23:51;2.17;;;0.82;;
13051;SDS011;6592;47.484;9.726;2022-10-26T00:26:19;2.28;;;0.85;;
13051;SDS011;6592;47.484;9.726;2022-10-26T00:28:48;2.78;;;0.75;;
13051;SDS011;6592;47.484;9.726;2022-10-26T00:31:18;3.53;;;0.90;;
13051;SDS011;6592;47.484;9.726;2022-10-26T00:33:48;4.25;;;1.10;;
13051;SDS011;6592;47.484;9.726;2022-10-26T00:36:19;3.17;;;0.85;;
13051;SDS011;6592;47.484;9.726;2022-10-26T00:38:47;1.92;;;0.80;;
13051;SDS011;6592;47.484;9.726;2022-10-26T00:41:16;1.80;;;0.80;;
13051;SDS011;6592;47.484;9.726;2022-10-26T00:43:46;1.83;;;0.70;;
13051;SDS011;6592;47.484;9.726;2022-10-26T00:46:15;2.28;;;0.90;;
13051;SDS011;6592;47.484;9.726;2022-10-26T00:48:49;1.58;;;0.70;;
13051;SDS011;6592;47.484;9.726;2022-10-26T00:51:21;1.17;;;0.60;;
13051;SDS011;6592;47.484;9.726;2022-10-26T00:53:55;2.20;;;0.70;;
13051;SDS011;6592;47.484;9.726;2022-10-26T00:56:23;3.00;;;0.73;;
13051;SDS011;6592;47.484;9.726;2022-10-26T00:58:52;3.00;;;0.73;;
13051;SDS011;6592;47.484;9.726;2022-10-26T01:01:21;1.50;;;0.60;;
13051;SDS011;6592;47.484;9.726;2022-10-26T01:03:50;1.48;;;0.60;;
13051;SDS011;6592;47.484;9.726;2022-10-26T01:06:20;1.47;;;0.77;;
13051;SDS011;6592;47.484;9.726;2022-10-26T01:08:48;1.65;;;0.65;;
13051;SDS011;6592;47.484;9.726;2022-10-26T01:11:17;1.85;;;0.73;;
13051;SDS011;6592;47.484;9.726;2022-10-26T01:13:45;1.30;;;0.50;;
13051;SDS011;6592;47.484;9.726;2022-10-26T01:16:23;1.53;;;0.63;;
13051;SDS011;6592;47.484;9.726;2022-10-26T01:19:14;1.75;;;0.80;;
13051;SDS011;6592;47.484;9.726;2022-10-26T01:22:04;1.95;;;0.90;;
13051;SDS011;6592;47.484;9.726;2022-10-26T01:24:46;2.05;;;0.80;;
13051;SDS011;6592;47.484;9.726;2022-10-26T01:27:27;3.42;;;0.75;;
13051;SDS011;6592;47.484;9.726;2022-10-26T01:33:03;1.25;;;0.60;;
13051;SDS011;6592;47.484;9.726;2022-10-26T01:36:00;2.15;;;0.70;;
13051;SDS011;6592;47.484;9.726;2022-10-26T01:38:35;2.00;;;0.70;;
13051;SDS011;6592;47.484;9.726;2022-10-26T01:41:11;1.67;;;0.63;;
13051;SDS011;6592;47.484;9.726;2022-10-26T01:43:44;1.83;;;0.68;;
13051;SDS011;6592;47.484;9.726;2022-10-26T01:46:19;5.10;;;0.60;;
13051;SDS011;6592;47.484;9.726;2022-10-26T01:48:48;1.50;;;0.60;;
13051;SDS011;6592;47.484;9.726;2022-10-26T01:51:20;1.30;;;0.52;;
13051;SDS011;6592;47.484;9.726;2022-10-26T01:53:48;2.28;;;0.50;;
13051;SDS011;6592;47.484;9.726;2022-10-26T01:56:18;0.88;;;0.50;;
13051;SDS011;6592;47.484;9.726;2022-10-26T02:01:38;2.45;;;0.68;;
13051;SDS011;6592;47.484;9.726;2022-10-26T02:04:33;2.55;;;0.60;;
13051;SDS011;6592;47.484;9.726;2022-10-26T02:07:10;1.27;;;0.60;;
13051;SDS011;6592;47.484;9.726;2022-10-26T02:09:45;1.92;;;0.55;;
13051;SDS011;6592;47.484;9.726;2022-10-26T02:12:26;1.55;;;0.55;;
13051;SDS011;6592;47.484;9.726;2022-10-26T02:15:01;2.05;;;0.70;;
13051;SDS011;6592;47.484;9.726;2022-10-26T02:17:35;1.52;;;0.60;;
13051;SDS011;6592;47.484;9.726;2022-10-26T02:20:13;1.90;;;0.70;;
13051;SDS011;6592;47.484;9.726;2022-10-26T02:22:47;1.25;;;0.55;;
13051;SDS011;6592;47.484;9.726;2022-10-26T02:25:19;1.35;;;0.50;;
13051;SDS011;6592;47.484;9.726;2022-10-26T02:27:50;2.15;;;0.60;;
13051;SDS011;6592;47.484;9.726;2022-10-26T02:30:22;1.70;;;0.60;;
13051;SDS011;6592;47.484;9.726;2022-10-26T02:32:52;2.42;;;0.70;;
13051;SDS011;6592;47.484;9.726;2022-10-26T02:35:24;1.13;;;0.40;;
13051;SDS011;6592;47.484;9.726;2022-10-26T02:37:56;1.05;;;0.50;;
13051;SDS011;6592;47.484;9.726;2022-10-26T02:40:28;1.90;;;0.60;;
13051;SDS011;6592;47.484;9.726;2022-10-26T02:42:58;1.85;;;0.80;;
13051;SDS011;6592;47.484;9.726;2022-10-26T02:45:32;1.48;;;0.70;;
13051;SDS011;6592;47.484;9.726;2022-10-26T02:48:06;1.67;;;0.60;;
13051;SDS011;6592;47.484;9.726;2022-10-26T02:50:37;1.35;;;0.60;;
13051;SDS011;6592;47.484;9.726;2022-10-26T02:53:16;1.20;;;0.68;;
13051;SDS011;6592;47.484;9.726;2022-10-26T02:55:50;2.00;;;0.70;;
13051;SDS011;6592;47.484;9.726;2022-10-26T02:58:19;4.00;;;1.30;;
13051;SDS011;6592;47.484;9.726;2022-10-26T03:00:51;3.78;;;2.00;;
13051;SDS011;6592;47.484;9.726;2022-10-26T03:03:21;5.60;;;2.60;;
13051;SDS011;6592;47.484;9.726;2022-10-26T03:05:50;4.28;;;2.50;;
13051;SDS011;6592;47.484;9.726;2022-10-26T03:08:19;5.18;;;3.28;;
13051;SDS011;6592;47.484;9.726;2022-10-26T03:10:47;6.95;;;3.22;;
13051;SDS011;6592;47.484;9.726;2022-10-26T03:13:15;7.72;;;3.25;;
13051;SDS011;6592;47.484;9.726;2022-10-26T03:15:44;5.15;;;3.10;;
13051;SDS011;6592;47.484;9.726;2022-10-26T03:18:12;5.50;;;2.65;;
13051;SDS011;6592;47.484;9.726;2022-10-26T03:20:43;6.18;;;3.53;;
13051;SDS011;6592;47.484;9.726;2022-10-26T03:23:12;7.72;;;3.35;;
13051;SDS011;6592;47.484;9.726;2022-10-26T03:25:40;7.32;;;3.90;;
13051;SDS011;6592;47.484;9.726;2022-10-26T03:28:09;10.93;;;4.22;;
13051;SDS011;6592;47.484;9.726;2022-10-26T03:30:37;7.63;;;3.92;;
13051;SDS011;6592;47.484;9.726;2022-10-26T03:33:06;9.27;;;4.18;;
13051;SDS011;6592;47.484;9.726;2022-10-26T03:35:35;11.65;;;4.63;;
13051;SDS011;6592;47.484;9.726;2022-10-26T03:38:04;7.63;;;4.13;;
13051;SDS011;6592;47.484;9.726;2022-10-26T03:40:32;7.90;;;4.30;;
13051;SDS011;6592;47.484;9.726;2022-10-26T03:43:01;8.20;;;4.28;;
13051;SDS011;6592;47.484;9.726;2022-10-26T03:45:30;6.70;;;4.03;;
13051;SDS011;6592;47.484;9.726;2022-10-26T03:47:59;6.75;;;3.72;;
13051;SDS011;6592;47.484;9.726;2022-10-26T03:50:28;6.50;;;3.78;;
13051;SDS011;6592;47.484;9.726;2022-10-26T03:52:56;7.13;;;3.83;;
13051;SDS011;6592;47.484;9.726;2022-10-26T03:55:26;8.38;;;4.30;;
13051;SDS011;6592;47.484;9.726;2022-10-26T03:57:54;7.88;;;4.13;;
13051;SDS011;6592;47.484;9.726;2022-10-26T04:00:22;7.82;;;4.28;;
13051;SDS011;6592;47.484;9.726;2022-10-26T04:02:52;7.65;;;4.40;;
13051;SDS011;6592;47.484;9.726;2022-10-26T04:05:22;7.28;;;4.20;;
13051;SDS011;6592;47.484;9.726;2022-10-26T04:07:51;7.47;;;3.67;;
13051;SDS011;6592;47.484;9.726;2022-10-26T04:10:20;5.80;;;3.63;;
13051;SDS011;6592;47.484;9.726;2022-10-26T04:12:50;7.80;;;4.28;;
13051;SDS011;6592;47.484;9.726;2022-10-26T04:15:19;8.70;;;3.88;;
13051;SDS011;6592;47.484;9.726;2022-10-26T04:17:53;6.97;;;3.92;;
13051;SDS011;6592;47.484;9.726;2022-10-26T04:20:22;6.53;;;4.05;;
13051;SDS011;6592;47.484;9.726;2022-10-26T04:22:57;6.72;;;3.97;;
13051;SDS011;6592;47.484;9.726;2022-10-26T04:25:27;6.28;;;4.00;;
13051;SDS011;6592;47.484;9.726;2022-10-26T04:28:00;7.72;;;4.07;;
13051;SDS011;6592;47.484;9.726;2022-10-26T04:30:29;8.80;;;4.32;;
13051;SDS011;6592;47.484;9.726;2022-10-26T04:32:58;8.88;;;3.97;;
13051;SDS011;6592;47.484;9.726;2022-10-26T04:35:27;7.68;;;3.85;;
13051;SDS011;6592;47.484;9.726;2022-10-26T04:37:56;8.82;;;4.07;;
13051;SDS011;6592;47.484;9.726;2022-10-26T04:40:25;6.85;;;3.67;;
13051;SDS011;6592;47.484;9.726;2022-10-26T04:42:54;8.30;;;3.15;;
13051;SDS011;6592;47.484;9.726;2022-10-26T04:45:24;4.53;;;2.60;;
13051;SDS011;6592;47.484;9.726;2022-10-26T04:48:00;5.65;;;2.60;;
13051;SDS011;6592;47.484;9.726;2022-10-26T04:50:29;5.65;;;3.13;;
13051;SDS011;6592;47.484;9.726;2022-10-26T04:52:58;5.07;;;2.58;;
13051;SDS011;6592;47.484;9.726;2022-10-26T04:55:27;3.42;;;2.10;;
13051;SDS011;6592;47.484;9.726;2022-10-26T04:57:55;4.43;;;2.20;;
13051;SDS011;6592;47.484;9.726;2022-10-26T05:00:28;3.65;;;1.55;;
13051;SDS011;6592;47.484;9.726;2022-10-26T05:02:58;4.75;;;1.73;;
13051;SDS011;6592;47.484;9.726;2022-10-26T05:05:27;3.10;;;1.50;;
13051;SDS011;6592;47.484;9.726;2022-10-26T05:07:57;2.80;;;1.50;;
13051;SDS011;6592;47.484;9.726;2022-10-26T05:10:25;3.83;;;1.52;;
13051;SDS011;6592;47.484;9.726;2022-10-26T05:12:55;2.15;;;1.15;;
13051;SDS011;6592;47.484;9.726;2022-10-26T05:15:24;2.90;;;1.38;;
13051;SDS011;6592;47.484;9.726;2022-10-26T05:17:55;2.63;;;1.20;;
13051;SDS011;6592;47.484;9.726;2022-10-26T05:20:25;2.50;;;1.15;;
13051;SDS011;6592;47.484;9.726;2022-10-26T05:25:24;2.00;;;1.00;;
13051;SDS011;6592;47.484;9.726;2022-10-26T05:27:56;4.05;;;1.08;;
13051;SDS011;6592;47.484;9.726;2022-10-26T05:30:27;1.63;;;0.75;;
13051;SDS011;6592;47.484;9.726;2022-10-26T05:32:57;2.33;;;1.02;;
13051;SDS011;6592;47.484;9.726;2022-10-26T05:35:27;2.47;;;0.80;;
13051;SDS011;6592;47.484;9.726;2022-10-26T05:37:56;2.60;;;1.00;;
13051;SDS011;6592;47.484;9.726;2022-10-26T05:40:24;1.50;;;0.80;;
13051;SDS011;6592;47.484;9.726;2022-10-26T05:42:58;2.22;;;1.05;;
13051;SDS011;6592;47.484;9.726;2022-10-26T05:45:27;1.90;;;0.95;;
13051;SDS011;6592;47.484;9.726;2022-10-26T05:47:58;4.60;;;1.27;;
13051;SDS011;6592;47.484;9.726;2022-10-26T05:50:28;3.78;;;1.67;;
13051;SDS011;6592;47.484;9.726;2022-10-26T05:52:56;4.97;;;2.10;;
13051;SDS011;6592;47.484;9.726;2022-10-26T05:55:25;5.20;;;1.95;;
13051;SDS011;6592;47.484;9.726;2022-10-26T05:57:54;4.15;;;2.20;;
13051;SDS011;6592;47.484;9.726;2022-10-26T06:00:23;5.90;;;2.22;;
13051;SDS011;6592;47.484;9.726;2022-10-26T06:03:03;3.97;;;2.40;;
13051;SDS011;6592;47.484;9.726;2022-10-26T06:05:40;3.67;;;1.95;;
13051;SDS011;6592;47.484;9.726;2022-10-26T06:08:17;4.72;;;1.90;;
13051;SDS011;6592;47.484;9.726;2022-10-26T06:10:46;2.15;;;1.08;;
13051;SDS011;6592;47.484;9.726;2022-10-26T06:13:15;3.22;;;1.58;;
13051;SDS011;6592;47.484;9.726;2022-10-26T06:15:46;4.28;;;1.75;;
13051;SDS011;6592;47.484;9.726;2022-10-26T06:18:28;2.35;;;1.30;;
13051;SDS011;6592;47.484;9.726;2022-10-26T06:21:08;3.90;;;1.50;;
13051;SDS011;6592;47.484;9.726;2022-10-26T06:23:48;3.92;;;1.40;;
13051;SDS011;6592;47.484;9.726;2022-10-26T06:26:25;4.03;;;1.63;;
13051;SDS011;6592;47.484;9.726;2022-10-26T06:29:04;2.85;;;1.30;;
13051;SDS011;6592;47.484;9.726;2022-10-26T06:31:39;10.23;;;1.67;;
13051;SDS011;6592;47.484;9.726;2022-10-26T06:34:09;4.07;;;1.38;;
13051;SDS011;6592;47.484;9.726;2022-10-26T06:36:39;3.58;;;1.65;;
13051;SDS011;6592;47.484;9.726;2022-10-26T06:39:09;3.60;;;1.55;;
13051;SDS011;6592;47.484;9.726;2022-10-26T06:41:39;3.58;;;1.60;;
13051;SDS011;6592;47.484;9.726;2022-10-26T06:44:07;4.22;;;1.55;;
13051;SDS011;6592;47.484;9.726;2022-10-26T06:49:14;4.32;;;1.40;;
13051;SDS011;6592;47.484;9.726;2022-10-26T06:51:50;3.92;;;1.27;;
13051;SDS011;6592;47.484;9.726;2022-10-26T06:54:24;2.10;;;0.90;;
13051;SDS011;6592;47.484;9.726;2022-10-26T06:56:58;2.70;;;0.95;;
13051;SDS011;6592;47.484;9.726;2022-10-26T06:59:30;3.13;;;0.95;;
13051;SDS011;6592;47.484;9.726;2022-10-26T07:02:03;3.72;;;1.25;;
13051;SDS011;6592;47.484;9.726;2022-10-26T07:04:33;1.50;;;0.52;;
13051;SDS011;6592;47.484;9.726;2022-10-26T07:07:01;2.67;;;0.95;;
13051;SDS011;6592;47.484;9.726;2022-10-26T07:09:30;1.98;;;0.98;;
13051;SDS011;6592;47.484;9.726;2022-10-26T07:11:59;3.15;;;1.10;;
13051;SDS011;6592;47.484;9.726;2022-10-26T07:14:27;3.05;;;1.23;;
13051;SDS011;6592;47.484;9.726;2022-10-26T07:16:55;2.85;;;1.00;;
13051;SDS011;6592;47.484;9.726;2022-10-26T07:19:23;3.08;;;1.10;;
13051;SDS011;6592;47.484;9.726;2022-10-26T07:21:54;2.78;;;0.98;;
13051;SDS011;6592;47.484;9.726;2022-10-26T07:24:24;3.30;;;1.02;;
13051;SDS011;6592;47.484;9.726;2022-10-26T07:26:53;2.17;;;1.02;;
13051;SDS011;6592;47.484;9.726;2022-10-26T07:29:22;2.72;;;1.00;;
13051;SDS011;6592;47.484;9.726;2022-10-26T07:31:51;1.65;;;0.70;;
13051;SDS011;6592;47.484;9.726;2022-10-26T07:34:20;1.80;;;0.60;;
13051;SDS011;6592;47.484;9.726;2022-10-26T07:36:48;2.85;;;0.73;;
13051;SDS011;6592;47.484;9.726;2022-10-26T07:39:18;2.67;;;0.88;;
13051;SDS011;6592;47.484;9.726;2022-10-26T07:41:47;1.63;;;0.95;;
13051;SDS011;6592;47.484;9.726;2022-10-26T07:44:15;2.90;;;0.90;;
13051;SDS011;6592;47.484;9.726;2022-10-26T07:46:43;1.83;;;0.80;;
13051;SDS011;6592;47.484;9.726;2022-10-26T07:49:11;1.98;;;0.93;;
13051;SDS011;6592;47.484;9.726;2022-10-26T07:51:44;2.20;;;0.93;;
13051;SDS011;6592;47.484;9.726;2022-10-26T07:54:13;2.83;;;1.15;;
13051;SDS011;6592;47.484;9.726;2022-10-26T07:56:42;4.05;;;1.38;;
13051;SDS011;6592;47.484;9.726;2022-10-26T07:59:11;2.70;;;1.40;;
13051;SDS011;6592;47.484;9.726;2022-10-26T08:01:39;4.07;;;1.02;;
13051;SDS011;6592;47.484;9.726;2022-10-26T08:04:07;5.22;;;0.98;;
13051;SDS011;6592;47.484;9.726;2022-10-26T08:06:35;2.53;;;1.23;;
13051;SDS011;6592;47.484;9.726;2022-10-26T08:09:04;3.90;;;1.20;;
13051;SDS011;6592;47.484;9.726;2022-10-26T08:11:32;3.10;;;0.90;;
13051;SDS011;6592;47.484;9.726;2022-10-26T08:14:03;1.90;;;0.90;;
13051;SDS011;6592;47.484;9.726;2022-10-26T08:16:32;1.90;;;0.75;;
13051;SDS011;6592;47.484;9.726;2022-10-26T08:19:01;1.75;;;0.90;;
13051;SDS011;6592;47.484;9.726;2022-10-26T08:21:29;3.80;;;1.10;;
13051;SDS011;6592;47.484;9.726;2022-10-26T08:24:06;2.03;;;0.90;;
13051;SDS011;6592;47.484;9.726;2022-10-26T08:26:35;2.97;;;0.90;;
13051;SDS011;6592;47.484;9.726;2022-10-26T08:29:04;1.60;;;0.88;;
13051;SDS011;6592;47.484;9.726;2022-10-26T08:31:33;2.08;;;0.75;;
13051;SDS011;6592;47.484;9.726;2022-10-26T08:34:01;3.30;;;1.15;;
13051;SDS011;6592;47.484;9.726;2022-10-26T08:36:30;2.33;;;0.85;;
13051;SDS011;6592;47.484;9.726;2022-10-26T08:38:59;2.35;;;0.90;;
13051;SDS011;6592;47.484;9.726;2022-10-26T08:41:30;2.55;;;1.17;;
13051;SDS011;6592;47.484;9.726;2022-10-26T08:44:05;2.92;;;1.10;;
13051;SDS011;6592;47.484;9.726;2022-10-26T08:46:45;3.50;;;1.35;;
13051;SDS011;6592;47.484;9.726;2022-10-26T08:49:17;2.80;;;1.00;;
13051;SDS011;6592;47.484;9.726;2022-10-26T08:51:49;2.92;;;1.25;;
13051;SDS011;6592;47.484;9.726;2022-10-26T08:54:23;2.72;;;1.27;;
13051;SDS011;6592;47.484;9.726;2022-10-26T08:56:57;2.47;;;1.10;;
13051;SDS011;6592;47.484;9.726;2022-10-26T08:59:30;2.83;;;1.20;;
13051;SDS011;6592;47.484;9.726;2022-10-26T09:02:02;2.40;;;1.00;;
13051;SDS011;6592;47.484;9.726;2022-10-26T09:04:36;3.30;;;1.15;;
13051;SDS011;6592;47.484;9.726;2022-10-26T09:07:06;1.73;;;0.80;;
13051;SDS011;6592;47.484;9.726;2022-10-26T09:09:44;2.58;;;1.05;;
13051;SDS011;6592;47.484;9.726;2022-10-26T09:12:21;2.78;;;0.80;;
13051;SDS011;6592;47.484;9.726;2022-10-26T09:15:02;3.38;;;1.00;;
13051;SDS011;6592;47.484;9.726;2022-10-26T09:17:42;2.17;;;0.80;;
13051;SDS011;6592;47.484;9.726;2022-10-26T09:20:23;2.58;;;0.80;;
13051;SDS011;6592;47.484;9.726;2022-10-26T09:23:06;3.35;;;1.20;;
13051;SDS011;6592;47.484;9.726;2022-10-26T09:25:46;2.35;;;1.00;;
13051;SDS011;6592;47.484;9.726;2022-10-26T09:28:25;3.10;;;1.10;;
13051;SDS011;6592;47.484;9.726;2022-10-26T09:30:58;2.55;;;1.17;;
13051;SDS011;6592;47.484;9.726;2022-10-26T09:35:58;2.55;;;0.90;;
13051;SDS011;6592;47.484;9.726;2022-10-26T09:38:29;2.13;;;0.75;;
13051;SDS011;6592;47.484;9.726;2022-10-26T09:41:00;2.72;;;1.10;;
13051;SDS011;6592;47.484;9.726;2022-10-26T09:43:34;3.03;;;0.80;;
13051;SDS011;6592;47.484;9.726;2022-10-26T09:46:08;3.03;;;1.05;;
13051;SDS011;6592;47.484;9.726;2022-10-26T09:48:43;1.85;;;0.65;;
13051;SDS011;6592;47.484;9.726;2022-10-26T09:51:15;4.28;;;1.17;;
13051;SDS011;6592;47.484;9.726;2022-10-26T09:53:43;3.13;;;1.00;;
13051;SDS011;6592;47.484;9.726;2022-10-26T09:56:12;3.33;;;1.02;;
13051;SDS011;6592;47.484;9.726;2022-10-26T09:58:41;3.17;;;1.20;;
13051;SDS011;6592;47.484;9.726;2022-10-26T10:01:22;4.00;;;1.40;;
13051;SDS011;6592;47.484;9.726;2022-10-26T10:04:08;2.70;;;1.10;;
13051;SDS011;6592;47.484;9.726;2022-10-26T10:06:43;2.58;;;1.20;;
13051;SDS011;6592;47.484;9.726;2022-10-26T10:09:13;4.13;;;1.55;;
13051;SDS011;6592;47.484;9.726;2022-10-26T10:11:43;3.03;;;1.00;;
13051;SDS011;6592;47.484;9.726;2022-10-26T10:14:20;4.05;;;1.00;;
13051;SDS011;6592;47.484;9.726;2022-10-26T10:16:52;3.08;;;0.85;;
13051;SDS011;6592;47.484;9.726;2022-10-26T10:19:23;3.05;;;1.17;;
13051;SDS011;6592;47.484;9.726;2022-10-26T10:21:53;2.38;;;1.10;;
13051;SDS011;6592;47.484;9.726;2022-10-26T10:24:24;3.58;;;1.05;;
13051;SDS011;6592;47.484;9.726;2022-10-26T10:26:58;3.75;;;1.60;;
13051;SDS011;6592;47.484;9.726;2022-10-26T10:29:28;4.60;;;1.70;;
13051;SDS011;6592;47.484;9.726;2022-10-26T10:32:01;3.45;;;1.05;;
13051;SDS011;6592;47.484;9.726;2022-10-26T10:34:31;2.88;;;1.15;;
13051;SDS011;6592;47.484;9.726;2022-10-26T10:37:01;2.38;;;1.10;;
13051;SDS011;6592;47.484;9.726;2022-10-26T10:39:34;3.78;;;1.00;;
13051;SDS011;6592;47.484;9.726;2022-10-26T10:42:15;3.45;;;1.23;;
13051;SDS011;6592;47.484;9.726;2022-10-26T10:44:49;2.95;;;1.02;;
13051;SDS011;6592;47.484;9.726;2022-10-26T10:47:23;4.18;;;1.30;;
13051;SDS011;6592;47.484;9.726;2022-10-26T10:49:53;2.80;;;1.20;;
13051;SDS011;6592;47.484;9.726;2022-10-26T10:52:25;2.08;;;0.95;;
13051;SDS011;6592;47.484;9.726;2022-10-26T10:55:14;1.85;;;0.73;;
13051;SDS011;6592;47.484;9.726;2022-10-26T10:57:57;2.28;;;0.98;;
13051;SDS011;6592;47.484;9.726;2022-10-26T11:00:35;2.35;;;0.80;;
13051;SDS011;6592;47.484;9.726;2022-10-26T11:06:09;2.47;;;0.80;;
13051;SDS011;6592;47.484;9.726;2022-10-26T11:08:44;1.92;;;0.80;;
13051;SDS011;6592;47.484;9.726;2022-10-26T11:11:17;2.78;;;0.88;;
13051;SDS011;6592;47.484;9.726;2022-10-26T11:13:49;1.85;;;0.90;;
13051;SDS011;6592;47.484;9.726;2022-10-26T11:16:22;2.50;;;1.00;;
13051;SDS011;6592;47.484;9.726;2022-10-26T11:18:56;2.65;;;0.80;;
13051;SDS011;6592;47.484;9.726;2022-10-26T11:21:28;3.90;;;0.70;;
13051;SDS011;6592;47.484;9.726;2022-10-26T11:24:01;2.42;;;1.02;;
13051;SDS011;6592;47.484;9.726;2022-10-26T11:26:39;1.75;;;0.85;;
13051;SDS011;6592;47.484;9.726;2022-10-26T11:29:16;2.13;;;1.10;;
13051;SDS011;6592;47.484;9.726;2022-10-26T11:31:50;2.08;;;1.05;;
13051;SDS011;6592;47.484;9.726;2022-10-26T11:34:28;1.08;;;0.60;;
13051;SDS011;6592;47.484;9.726;2022-10-26T11:37:02;1.65;;;0.70;;
13051;SDS011;6592;47.484;9.726;2022-10-26T11:39:37;2.40;;;0.80;;
13051;SDS011;6592;47.484;9.726;2022-10-26T11:42:17;2.08;;;0.80;;
13051;SDS011;6592;47.484;9.726;2022-10-26T11:44:52;2.10;;;0.90;;
13051;SDS011;6592;47.484;9.726;2022-10-26T11:47:27;3.08;;;0.80;;
13051;SDS011;6592;47.484;9.726;2022-10-26T11:50:05;1.35;;;0.70;;
13051;SDS011;6592;47.484;9.726;2022-10-26T11:52:43;1.48;;;0.68;;
13051;SDS011;6592;47.484;9.726;2022-10-26T11:55:16;1.77;;;0.55;;
13051;SDS011;6592;47.484;9.726;2022-10-26T11:57:47;2.67;;;0.80;;
13051;SDS011;6592;47.484;9.726;2022-10-26T12:02:48;1.83;;;0.80;;
13051;SDS011;6592;47.484;9.726;2022-10-26T12:05:31;2.35;;;0.90;;
13051;SDS011;6592;47.484;9.726;2022-10-26T12:08:02;2.35;;;0.80;;
13051;SDS011;6592;47.484;9.726;2022-10-26T12:10:37;1.85;;;0.80;;
13051;SDS011;6592;47.484;9.726;2022-10-26T12:13:10;2.55;;;0.60;;
13051;SDS011;6592;47.484;9.726;2022-10-26T12:15:45;2.13;;;0.77;;
13051;SDS011;6592;47.484;9.726;2022-10-26T12:18:31;1.98;;;0.68;;
13051;SDS011;6592;47.484;9.726;2022-10-26T12:21:24;6.40;;;1.48;;
13051;SDS011;6592;47.484;9.726;2022-10-26T12:23:56;2.22;;;0.70;;
13051;SDS011;6592;47.484;9.726;2022-10-26T12:41:12;2.35;;;0.63;;
13051;SDS011;6592;47.484;9.726;2022-10-26T12:43:46;2.72;;;0.80;;
13051;SDS011;6592;47.484;9.726;2022-10-26T12:49:16;1.65;;;0.70;;
13051;SDS011;6592;47.484;9.726;2022-10-26T12:52:29;2.70;;;0.80;;
13051;SDS011;6592;47.484;9.726;2022-10-26T12:58:33;1.48;;;0.73;;
13051;SDS011;6592;47.484;9.726;2022-10-26T13:05:12;1.52;;;0.50;;
13051;SDS011;6592;47.484;9.726;2022-10-26T13:08:02;2.35;;;0.60;;
13051;SDS011;6592;47.484;9.726;2022-10-26T13:10:33;1.15;;;0.70;;
13051;SDS011;6592;47.484;9.726;2022-10-26T13:13:04;2.65;;;0.70;;
13051;SDS011;6592;47.484;9.726;2022-10-26T13:15:37;1.23;;;0.60;;
13051;SDS011;6592;47.484;9.726;2022-10-26T13:18:07;1.10;;;0.57;;
13051;SDS011;6592;47.484;9.726;2022-10-26T13:20:51;1.65;;;0.65;;
13051;SDS011;6592;47.484;9.726;2022-10-26T13:23:25;1.83;;;0.70;;
13051;SDS011;6592;47.484;9.726;2022-10-26T13:26:03;1.60;;;0.80;;
13051;SDS011;6592;47.484;9.726;2022-10-26T13:28:45;1.60;;;0.70;;
13051;SDS011;6592;47.484;9.726;2022-10-26T13:34:28;1.58;;;0.80;;
13051;SDS011;6592;47.484;9.726;2022-10-26T13:37:00;1.85;;;0.65;;
13051;SDS011;6592;47.484;9.726;2022-10-26T13:39:34;3.30;;;0.98;;
13051;SDS011;6592;47.484;9.726;2022-10-26T13:42:04;1.85;;;0.90;;
13051;SDS011;6592;47.484;9.726;2022-10-26T13:44:38;2.17;;;1.00;;
13051;SDS011;6592;47.484;9.726;2022-10-26T13:47:09;1.92;;;0.88;;
13051;SDS011;6592;47.484;9.726;2022-10-26T13:49:44;2.10;;;0.73;;
13051;SDS011;6592;47.484;9.726;2022-10-26T13:52:15;2.03;;;0.80;;
13051;SDS011;6592;47.484;9.726;2022-10-26T13:54:50;1.95;;;0.70;;
13051;SDS011;6592;47.484;9.726;2022-10-26T13:57:27;3.55;;;0.90;;
13051;SDS011;6592;47.484;9.726;2022-10-26T13:59:59;1.45;;;0.80;;
13051;SDS011;6592;47.484;9.726;2022-10-26T14:02:34;2.30;;;0.82;;
13051;SDS011;6592;47.484;9.726;2022-10-26T14:05:11;2.88;;;0.70;;
13051;SDS011;6592;47.484;9.726;2022-10-26T14:07:41;1.73;;;0.82;;
13051;SDS011;6592;47.484;9.726;2022-10-26T14:10:21;1.48;;;0.65;;
13051;SDS011;6592;47.484;9.726;2022-10-26T14:12:52;3.08;;;0.88;;
13051;SDS011;6592;47.484;9.726;2022-10-26T14:15:22;2.08;;;1.00;;
13051;SDS011;6592;47.484;9.726;2022-10-26T14:17:53;2.58;;;0.90;;
13051;SDS011;6592;47.484;9.726;2022-10-26T14:20:24;1.75;;;0.77;;
13051;SDS011;6592;47.484;9.726;2022-10-26T14:22:54;1.55;;;0.70;;
13051;SDS011;6592;47.484;9.726;2022-10-26T14:25:24;1.88;;;0.70;;
13051;SDS011;6592;47.484;9.726;2022-10-26T14:28:20;2.17;;;0.80;;
13051;SDS011;6592;47.484;9.726;2022-10-26T14:30:49;1.70;;;0.60;;
13051;SDS011;6592;47.484;9.726;2022-10-26T14:33:18;1.83;;;0.77;;
13051;SDS011;6592;47.484;9.726;2022-10-26T14:35:53;2.65;;;0.70;;
13051;SDS011;6592;47.484;9.726;2022-10-26T14:38:23;1.60;;;0.90;;
13051;SDS011;6592;47.484;9.726;2022-10-26T14:40:53;4.03;;;1.58;;
13051;SDS011;6592;47.484;9.726;2022-10-26T14:43:23;4.60;;;1.70;;
13051;SDS011;6592;47.484;9.726;2022-10-26T14:45:53;4.82;;;2.10;;
13051;SDS011;6592;47.484;9.726;2022-10-26T14:48:23;3.05;;;1.20;;
13051;SDS011;6592;47.484;9.726;2022-10-26T14:51:00;2.45;;;1.10;;
13051;SDS011;6592;47.484;9.726;2022-10-26T14:53:33;1.60;;;0.80;;
13051;SDS011;6592;47.484;9.726;2022-10-26T14:56:04;3.05;;;1.00;;
13051;SDS011;6592;47.484;9.726;2022-10-26T14:58:44;2.90;;;1.30;;
13051;SDS011;6592;47.484;9.726;2022-10-26T15:01:21;3.22;;;1.17;;
13051;SDS011;6592;47.484;9.726;2022-10-26T15:03:56;3.00;;;1.13;;
13051;SDS011;6592;47.484;9.726;2022-10-26T15:09:29;2.28;;;1.00;;
13051;SDS011;6592;47.484;9.726;2022-10-26T15:11:59;3.70;;;1.45;;
13051;SDS011;6592;47.484;9.726;2022-10-26T15:17:00;1.58;;;0.80;;
13051;SDS011;6592;47.484;9.726;2022-10-26T15:19:29;2.47;;;1.00;;
13051;SDS011;6592;47.484;9.726;2022-10-26T15:21:59;2.55;;;1.20;;
13051;SDS011;6592;47.484;9.726;2022-10-26T15:24:28;2.28;;;1.00;;
13051;SDS011;6592;47.484;9.726;2022-10-26T15:27:10;2.35;;;1.17;;
13051;SDS011;6592;47.484;9.726;2022-10-26T15:29:42;2.00;;;1.08;;
13051;SDS011;6592;47.484;9.726;2022-10-26T15:37:58;3.05;;;1.10;;
13051;SDS011;6592;47.484;9.726;2022-10-26T15:40:27;3.63;;;1.00;;
13051;SDS011;6592;47.484;9.726;2022-10-26T15:42:58;2.97;;;1.08;;
13051;SDS011;6592;47.484;9.726;2022-10-26T15:45:28;3.92;;;1.38;;
13051;SDS011;6592;47.484;9.726;2022-10-26T15:48:12;2.67;;;1.10;;
13051;SDS011;6592;47.484;9.726;2022-10-26T15:50:44;2.67;;;1.23;;
13051;SDS011;6592;47.484;9.726;2022-10-26T15:53:16;3.03;;;1.15;;
13051;SDS011;6592;47.484;9.726;2022-10-26T15:55:47;3.58;;;1.25;;
13051;SDS011;6592;47.484;9.726;2022-10-26T15:58:15;2.30;;;1.20;;
13051;SDS011;6592;47.484;9.726;2022-10-26T16:00:44;4.15;;;1.48;;
13051;SDS011;6592;47.484;9.726;2022-10-26T16:03:15;3.35;;;1.23;;
13051;SDS011;6592;47.484;9.726;2022-10-26T16:05:45;5.15;;;1.50;;
13051;SDS011;6592;47.484;9.726;2022-10-26T16:08:16;2.90;;;1.45;;
13051;SDS011;6592;47.484;9.726;2022-10-26T16:10:45;4.63;;;1.80;;
13051;SDS011;6592;47.484;9.726;2022-10-26T16:13:16;3.00;;;1.40;;
13051;SDS011;6592;47.484;9.726;2022-10-26T16:15:44;3.35;;;1.42;;
13051;SDS011;6592;47.484;9.726;2022-10-26T16:18:13;5.10;;;1.83;;
13051;SDS011;6592;47.484;9.726;2022-10-26T16:20:43;3.88;;;1.77;;
13051;SDS011;6592;47.484;9.726;2022-10-26T16:23:12;4.00;;;1.58;;
13051;SDS011;6592;47.484;9.726;2022-10-26T16:25:43;5.25;;;1.25;;
13051;SDS011;6592;47.484;9.726;2022-10-26T16:28:13;4.75;;;1.40;;
13051;SDS011;6592;47.484;9.726;2022-10-26T16:30:43;3.97;;;1.48;;